Time;durP1;ratioP1;P1;durP2;ratioP2;P2;SDS_P1;SDS_P2;PMS_P1;PMS_P2;Temp;Humidity;BMP_temperature;BMP_pressure;BME280_temperature;BME280_humidity;BME280_pressure;Samples;Min_cycle;Max_cycle;Signal;HPM_P1;HPM_P2
2024/04/23 00:02:11;;;;;;;9.90;8.57;;;6.80;99.90;;;;;;5453582;26;20236;-61
2024/04/23 00:04:37;;;;;;;13.40;12.20;;;6.80;99.90;;;;;;5452621;26;20973;-61
2024/04/23 00:07:02;;;;;;;11.80;9.80;;;6.80;99.90;;;;;;5453613;26;20226;-61
2024/04/23 00:09:29;;;;;;;14.10;12.63;;;6.80;99.90;;;;;;5452790;26;20771;-61
2024/04/23 00:11:55;;;;;;;12.90;11.03;;;6.80;99.90;;;;;;5453548;26;20235;-61
2024/04/23 00:14:21;;;;;;;9.83;8.77;;;6.70;99.90;;;;;;5452698;26;20804;-61
2024/04/23 00:16:56;;;;;;;10.67;9.57;;;6.70;99.90;;;;;;5453198;26;21081;-61
2024/04/23 00:19:22;;;;;;;14.90;13.50;;;6.70;99.90;;;;;;5425626;26;20467;-60
2024/04/23 00:21:48;;;;;;;11.30;9.70;;;6.70;99.90;;;;;;5385959;26;20463;-61
2024/04/23 00:24:14;;;;;;;11.00;9.20;;;6.70;99.90;;;;;;5417303;26;20316;-61
2024/04/23 00:26:39;;;;;;;13.97;12.57;;;6.70;99.90;;;;;;5416461;26;20341;-61
2024/04/23 00:29:05;;;;;;;11.07;9.17;;;6.70;99.90;;;;;;5417424;26;20230;-61
2024/04/23 00:31:32;;;;;;;10.07;8.90;;;6.70;99.90;;;;;;5417356;26;20238;-61
2024/04/23 00:33:58;;;;;;;14.13;12.63;;;6.70;99.90;;;;;;5417190;26;20229;-61
2024/04/23 00:36:23;;;;;;;13.60;11.47;;;6.60;99.90;;;;;;5416679;26;20456;-61
2024/04/23 00:38:49;;;;;;;12.47;11.33;;;6.60;99.90;;;;;;5417255;26;20580;-61
2024/04/23 00:41:15;;;;;;;13.70;9.60;;;6.60;99.90;;;;;;5416771;26;20237;-61
2024/04/23 00:43:41;;;;;;;12.00;10.80;;;6.60;99.90;;;;;;5416444;26;20709;-61
2024/04/23 00:46:10;;;;;;;10.80;9.70;;;6.60;99.90;;;;;;5417023;26;20233;-62
2024/04/23 00:48:35;;;;;;;10.10;9.10;;;6.50;99.90;;;;;;5416005;26;20599;-61
2024/04/23 00:51:02;;;;;;;13.50;10.80;;;6.40;99.90;;;;;;5417093;26;20443;-61
2024/04/23 00:53:28;;;;;;;12.23;10.20;;;6.40;99.90;;;;;;5385619;26;20493;-61
2024/04/23 00:55:54;;;;;;;10.83;9.80;;;6.30;99.90;;;;;;5416945;26;20451;-61
2024/04/23 00:58:20;;;;;;;12.53;9.40;;;6.30;99.90;;;;;;5415867;26;20786;-61
2024/04/23 01:00:46;;;;;;;10.90;9.80;;;6.20;99.90;;;;;;5417019;26;20589;-62
2024/04/23 01:03:12;;;;;;;12.53;11.33;;;6.20;99.90;;;;;;5416127;26;21034;-61
2024/04/23 01:05:38;;;;;;;10.73;9.37;;;6.20;99.90;;;;;;5414689;26;20519;-61
2024/04/23 01:08:03;;;;;;;14.03;12.60;;;6.30;99.90;;;;;;5417047;26;20226;-61
2024/04/23 01:10:29;;;;;;;10.80;8.67;;;6.30;99.90;;;;;;5384635;26;20296;-61
2024/04/23 01:12:55;;;;;;;13.10;11.90;;;6.30;99.90;;;;;;5416280;26;20285;-60
2024/04/23 01:15:22;;;;;;;11.47;10.37;;;6.30;99.90;;;;;;5384561;26;20479;-61
2024/04/23 01:17:53;;;;;;;10.70;8.30;;;6.30;99.90;;;;;;5388512;26;20272;-61
2024/04/23 01:20:19;;;;;;;12.10;11.00;;;6.40;99.90;;;;;;5451449;26;20457;-62
2024/04/23 01:23:26;;;;;;;12.00;10.90;;;6.30;99.90;;;;;;5452506;26;20458;-61
2024/04/23 01:25:55;;;;;;;9.17;8.17;;;6.40;99.90;;;;;;5411263;26;20532;-61
2024/04/23 01:28:22;;;;;;;13.70;12.50;;;6.30;99.90;;;;;;5451605;26;20520;-60
2024/04/23 01:30:48;;;;;;;10.80;9.00;;;6.30;99.90;;;;;;5452181;26;20498;-61
2024/04/23 01:33:16;;;;;;;10.10;8.30;;;6.30;99.90;;;;;;5452042;26;20444;-62
2024/04/23 01:35:43;;;;;;;12.50;11.30;;;6.20;99.90;;;;;;5437690;26;20278;-63
2024/04/23 01:38:10;;;;;;;11.43;9.90;;;6.10;99.90;;;;;;5451839;26;20442;-62
2024/04/23 01:40:36;;;;;;;11.40;10.20;;;6.10;99.90;;;;;;5451293;26;20439;-63
2024/04/23 01:43:02;;;;;;;10.10;8.90;;;6.10;99.90;;;;;;5451847;26;21045;-63
2024/04/23 01:45:28;;;;;;;10.00;8.53;;;6.10;99.90;;;;;;5450941;26;20521;-63
2024/04/23 01:47:54;;;;;;;10.03;9.00;;;6.10;99.90;;;;;;5451464;26;20461;-63
2024/04/23 01:50:20;;;;;;;9.53;8.63;;;6.20;99.90;;;;;;5420219;26;20453;-63
2024/04/23 01:52:46;;;;;;;10.07;9.10;;;6.20;99.90;;;;;;5451955;26;20540;-63
2024/04/23 01:55:14;;;;;;;11.53;9.00;;;6.20;99.90;;;;;;5451393;26;20511;-63
2024/04/23 01:57:40;;;;;;;8.93;7.57;;;6.20;99.90;;;;;;5451004;26;21027;-63
2024/04/23 02:00:12;;;;;;;12.67;11.50;;;6.10;99.90;;;;;;5451406;26;20422;-63
2024/04/23 02:02:40;;;;;;;10.33;9.23;;;6.10;99.90;;;;;;5450757;26;20228;-63
2024/04/23 02:05:08;;;;;;;9.50;8.50;;;6.10;99.90;;;;;;5451736;26;20505;-63
2024/04/23 02:07:34;;;;;;;13.00;11.70;;;6.10;99.90;;;;;;5450707;26;20494;-63
2024/04/23 02:10:01;;;;;;;10.60;8.63;;;6.10;99.90;;;;;;5451156;26;20510;-63
2024/04/23 02:12:26;;;;;;;12.00;8.97;;;6.00;99.90;;;;;;5450573;26;20480;-63
2024/04/23 02:14:52;;;;;;;12.13;10.93;;;6.00;99.90;;;;;;5451694;26;20449;-63
2024/04/23 02:17:18;;;;;;;13.50;12.13;;;6.00;99.90;;;;;;5454726;26;20239;-63
2024/04/23 02:19:44;;;;;;;12.43;11.20;;;6.00;99.90;;;;;;5416727;26;20240;-63
2024/04/23 02:22:10;;;;;;;10.33;8.60;;;6.00;99.90;;;;;;5418993;26;20503;-63
2024/04/23 02:24:37;;;;;;;9.23;8.37;;;5.90;99.90;;;;;;5418055;26;20459;-63
2024/04/23 02:27:03;;;;;;;14.73;9.93;;;5.90;99.90;;;;;;5418884;26;20342;-63
2024/04/23 02:29:29;;;;;;;11.90;9.80;;;5.90;99.90;;;;;;5418050;26;20446;-63
2024/04/23 02:32:02;;;;;;;12.20;10.23;;;5.90;99.90;;;;;;5418868;26;20229;-63
2024/04/23 02:34:28;;;;;;;9.57;8.63;;;5.90;99.90;;;;;;5418349;26;20278;-63
2024/04/23 02:36:54;;;;;;;10.10;8.87;;;5.90;99.90;;;;;;5418829;26;20466;-63
2024/04/23 02:39:20;;;;;;;11.70;10.50;;;5.80;99.90;;;;;;5418578;26;20769;-62
2024/04/23 02:41:51;;;;;;;12.73;9.10;;;5.90;99.90;;;;;;5416668;26;20450;-63
2024/04/23 02:44:16;;;;;;;10.70;8.83;;;5.80;99.90;;;;;;5418713;26;20452;-63
2024/04/23 02:46:42;;;;;;;10.90;8.50;;;5.80;99.90;;;;;;5418021;26;20458;-64
2024/04/23 02:49:08;;;;;;;10.60;8.53;;;5.80;99.90;;;;;;5418424;26;20849;-62
2024/04/23 02:51:34;;;;;;;12.10;10.40;;;5.70;99.90;;;;;;5417964;26;20291;-63
2024/04/23 02:53:59;;;;;;;11.17;9.97;;;5.50;99.90;;;;;;5418702;26;20262;-63
2024/04/23 02:56:25;;;;;;;11.13;10.00;;;5.30;99.90;;;;;;5418140;26;20615;-62
2024/04/23 02:58:52;;;;;;;11.07;9.27;;;5.30;99.90;;;;;;5418760;26;20301;-63
2024/04/23 03:01:18;;;;;;;10.82;8.80;;;5.40;99.90;;;;;;5418215;26;20471;-62
2024/04/23 03:03:43;;;;;;;9.33;8.43;;;5.40;99.90;;;;;;5417763;26;20237;-62
2024/04/23 03:06:09;;;;;;;9.23;8.27;;;5.50;99.90;;;;;;5418780;26;20425;-63
2024/04/23 03:08:35;;;;;;;12.40;9.90;;;5.40;99.90;;;;;;5415973;26;20255;-62
2024/04/23 03:11:00;;;;;;;12.17;10.13;;;5.50;99.90;;;;;;5418502;26;20224;-62
2024/04/23 03:13:26;;;;;;;10.53;8.90;;;5.50;99.90;;;;;;5415158;26;20590;-62
2024/04/23 03:15:52;;;;;;;9.50;8.60;;;5.50;99.90;;;;;;5416629;26;20240;-62
2024/04/23 03:18:17;;;;;;;12.30;9.20;;;5.50;99.90;;;;;;5428809;26;20254;-62
2024/04/23 03:20:43;;;;;;;10.77;9.23;;;5.50;99.90;;;;;;5453420;26;20227;-62
2024/04/23 03:23:09;;;;;;;10.37;9.27;;;5.50;99.90;;;;;;5454308;26;20991;-63
2024/04/23 03:25:35;;;;;;;10.67;9.10;;;5.50;99.90;;;;;;5453267;26;20230;-62
2024/04/23 03:28:00;;;;;;;10.90;9.63;;;5.50;99.90;;;;;;5452643;26;20231;-63
2024/04/23 03:30:26;;;;;;;10.27;8.87;;;5.40;99.90;;;;;;5453879;26;20275;-61
2024/04/23 03:32:52;;;;;;;9.43;8.07;;;5.30;99.90;;;;;;5453081;26;20275;-62
2024/04/23 03:35:22;;;;;;;13.30;8.83;;;5.20;99.90;;;;;;5453289;26;20227;-63
2024/04/23 03:37:48;;;;;;;10.13;8.37;;;5.20;99.90;;;;;;5453371;26;20642;-62
2024/04/23 03:40:14;;;;;;;12.03;9.27;;;5.20;99.90;;;;;;5453945;26;20447;-63
2024/04/23 03:42:40;;;;;;;9.97;9.07;;;5.30;99.90;;;;;;5453006;26;20440;-62
2024/04/23 03:45:06;;;;;;;11.00;9.10;;;5.30;99.90;;;;;;5453749;26;20566;-62
2024/04/23 03:47:31;;;;;;;12.10;10.90;;;5.30;99.90;;;;;;5452918;26;20234;-62
2024/04/23 03:49:57;;;;;;;10.30;9.40;;;5.30;99.90;;;;;;5453411;26;20517;-62
2024/04/23 03:52:26;;;;;;;9.47;8.40;;;5.40;99.90;;;;;;5454087;26;20265;-63
2024/04/23 03:54:52;;;;;;;9.50;8.50;;;5.40;99.90;;;;;;5452864;26;20226;-62
2024/04/23 03:57:18;;;;;;;9.43;7.88;;;5.40;99.90;;;;;;5453464;26;20272;-61
2024/04/23 03:59:43;;;;;;;8.97;8.00;;;5.40;99.90;;;;;;5452799;26;20238;-61
2024/04/23 04:07:38;;;;;;;8.38;7.50;;;5.40;99.90;;;;;;5449523;26;20452;-61
2024/04/23 04:10:04;;;;;;;7.80;6.90;;;5.40;99.90;;;;;;5452805;26;20235;-61
2024/04/23 04:12:30;;;;;;;9.77;7.77;;;5.40;99.90;;;;;;5420976;26;20227;-61
2024/04/23 04:14:55;;;;;;;9.60;7.33;;;5.30;99.90;;;;;;5452506;26;20425;-61
2024/04/23 04:17:21;;;;;;;11.40;7.63;;;5.40;99.90;;;;;;5453161;26;20252;-61
2024/04/23 04:19:47;;;;;;;7.90;7.20;;;5.40;99.90;;;;;;5452310;26;20338;-60
2024/04/23 04:22:12;;;;;;;8.43;7.10;;;5.40;99.90;;;;;;5453287;26;20238;-61
2024/04/23 04:24:38;;;;;;;10.00;7.90;;;5.40;99.90;;;;;;5452334;26;20250;-61
2024/04/23 04:27:04;;;;;;;10.83;9.40;;;5.40;99.90;;;;;;5453023;26;20768;-61
2024/04/23 04:29:30;;;;;;;9.60;8.70;;;5.40;99.90;;;;;;5420501;26;20236;-60
2024/04/23 04:31:55;;;;;;;9.77;8.40;;;5.40;99.90;;;;;;5453110;26;20230;-61
2024/04/23 04:34:21;;;;;;;10.27;7.80;;;5.40;99.90;;;;;;5453350;26;20429;-61
2024/04/23 04:36:47;;;;;;;9.33;8.47;;;5.40;99.90;;;;;;5452105;26;20234;-68
2024/04/23 04:39:12;;;;;;;10.53;9.50;;;5.40;99.90;;;;;;5452257;26;20228;-67
2024/04/23 04:41:38;;;;;;;12.03;9.50;;;5.40;99.90;;;;;;5452336;26;20273;-67
2024/04/23 04:44:04;;;;;;;8.93;8.03;;;5.50;99.90;;;;;;5452784;26;20346;-65
2024/04/23 04:46:30;;;;;;;10.10;8.50;;;5.50;99.90;;;;;;5452389;26;20223;-69
2024/04/23 04:48:55;;;;;;;12.90;8.80;;;5.50;99.90;;;;;;5452584;26;20247;-62
2024/04/23 04:51:21;;;;;;;10.53;8.37;;;5.50;99.90;;;;;;5452032;26;20899;-63
2024/04/23 04:53:47;;;;;;;9.43;8.43;;;5.50;99.90;;;;;;5451977;26;20238;-63
2024/04/23 04:56:13;;;;;;;9.67;8.50;;;5.50;99.90;;;;;;5451806;26;20299;-61
2024/04/23 04:58:39;;;;;;;9.20;8.20;;;5.60;99.90;;;;;;5452090;26;20572;-62
2024/04/23 05:01:05;;;;;;;10.90;8.30;;;5.60;99.90;;;;;;5452732;26;20250;-62
2024/04/23 05:03:31;;;;;;;10.90;7.63;;;5.60;99.90;;;;;;5451013;26;20453;-62
2024/04/23 05:05:57;;;;;;;9.63;8.70;;;5.60;99.90;;;;;;5452831;26;20544;-62
2024/04/23 05:08:22;;;;;;;12.07;8.57;;;5.70;99.90;;;;;;5420967;26;20473;-62
2024/04/23 05:10:48;;;;;;;10.63;8.70;;;5.70;99.90;;;;;;5451824;26;20228;-62
2024/04/23 05:13:14;;;;;;;12.17;9.73;;;5.70;99.90;;;;;;5452121;26;20239;-62
2024/04/23 05:15:40;;;;;;;9.67;8.77;;;5.70;99.90;;;;;;5451971;26;20496;-61
2024/04/23 05:18:06;;;;;;;9.67;8.77;;;5.70;99.90;;;;;;5452488;26;20248;-61
2024/04/23 05:20:32;;;;;;;9.97;8.87;;;5.70;99.90;;;;;;5452321;26;20231;-62
2024/04/23 05:22:58;;;;;;;14.97;10.97;;;5.70;99.90;;;;;;5452472;26;20292;-62
2024/04/23 05:25:23;;;;;;;10.93;9.40;;;5.80;99.90;;;;;;5451466;26;20448;-61
2024/04/23 05:27:49;;;;;;;10.30;9.20;;;5.70;99.90;;;;;;5419727;26;20262;-61
2024/04/23 05:32:59;;;;;;;10.60;9.40;;;5.80;99.90;;;;;;5452383;26;20226;-62
2024/04/23 05:35:25;;;;;;;10.20;8.70;;;5.80;99.90;;;;;;5420100;26;20899;-65
2024/04/23 05:37:51;;;;;;;9.50;8.50;;;5.80;99.90;;;;;;5419679;26;20235;-64
2024/04/23 05:40:17;;;;;;;11.80;8.90;;;5.80;99.90;;;;;;5451094;26;20236;-62
2024/04/23 05:42:42;;;;;;;9.77;8.30;;;5.80;99.90;;;;;;5450319;26;20335;-62
2024/04/23 05:45:08;;;;;;;12.17;10.50;;;5.80;99.90;;;;;;5451253;26;20343;-62
2024/04/23 05:48:12;;;;;;;11.47;10.37;;;5.80;99.90;;;;;;5451854;26;20500;-60
2024/04/23 05:51:15;;;;;;;9.50;8.00;;;5.90;99.90;;;;;;5451878;26;20282;-61
2024/04/23 05:54:18;;;;;;;9.30;8.40;;;5.90;99.90;;;;;;5452661;26;20489;-61
2024/04/23 05:56:44;;;;;;;9.03;7.90;;;5.90;99.90;;;;;;5454891;26;20425;-61
2024/04/23 05:59:09;;;;;;;8.37;7.50;;;6.00;99.90;;;;;;5455743;26;20496;-62
2024/04/23 06:01:35;;;;;;;10.43;9.43;;;6.00;99.90;;;;;;5454995;26;20232;-60
2024/04/23 06:04:01;;;;;;;10.50;9.20;;;6.00;99.90;;;;;;5454673;26;20770;-61
2024/04/23 06:06:27;;;;;;;8.73;7.93;;;6.10;99.90;;;;;;5455288;26;20441;-62
2024/04/23 06:08:52;;;;;;;10.70;8.90;;;6.10;99.90;;;;;;5454370;26;20227;-66
2024/04/23 06:11:18;;;;;;;11.20;8.70;;;6.10;99.90;;;;;;5455137;26;20755;-65
2024/04/23 06:13:47;;;;;;;10.43;9.20;;;6.10;99.90;;;;;;5454735;26;20231;-66
2024/04/23 06:16:12;;;;;;;10.77;9.00;;;6.20;99.90;;;;;;5454528;26;20629;-65
2024/04/23 06:18:38;;;;;;;8.63;7.73;;;6.20;99.90;;;;;;5416690;26;20463;-64
2024/04/23 06:21:05;;;;;;;9.60;8.60;;;6.20;99.90;;;;;;5419326;26;20275;-64
2024/04/23 06:23:31;;;;;;;11.83;10.83;;;6.20;99.90;;;;;;5416452;26;20245;-64
2024/04/23 06:25:57;;;;;;;10.13;9.20;;;6.30;99.90;;;;;;5417372;26;20487;-63
2024/04/23 06:28:22;;;;;;;10.97;9.67;;;6.40;99.90;;;;;;5419058;26;20744;-65
2024/04/23 06:30:50;;;;;;;10.77;8.83;;;6.40;99.90;;;;;;5418487;26;20225;-64
2024/04/23 06:33:16;;;;;;;11.57;9.63;;;6.50;99.90;;;;;;5418655;26;20230;-65
2024/04/23 06:35:41;;;;;;;11.30;10.07;;;6.60;99.90;;;;;;5417486;26;20464;-64
2024/04/23 06:38:07;;;;;;;11.07;9.20;;;6.60;99.90;;;;;;5418578;26;20231;-67
2024/04/23 06:40:33;;;;;;;12.13;9.30;;;6.70;99.90;;;;;;5417941;26;20238;-65
2024/04/23 06:42:59;;;;;;;10.23;9.13;;;6.70;99.90;;;;;;5417551;26;20234;-65
2024/04/23 06:45:24;;;;;;;10.57;9.43;;;6.80;99.90;;;;;;5418128;26;20264;-65
2024/04/23 06:48:00;;;;;;;13.07;10.70;;;6.90;99.90;;;;;;5415592;26;20250;-62
2024/04/23 06:50:26;;;;;;;12.10;9.07;;;6.90;99.90;;;;;;5417329;26;20434;-62
2024/04/23 06:52:51;;;;;;;12.47;9.37;;;7.00;99.90;;;;;;5417105;26;20444;-62
2024/04/23 06:55:17;;;;;;;15.00;9.97;;;7.00;99.90;;;;;;5417710;26;20230;-65
2024/04/23 06:57:43;;;;;;;15.20;11.70;;;7.10;99.90;;;;;;5417828;26;20618;-63
2024/04/23 07:00:09;;;;;;;11.00;9.90;;;7.20;99.90;;;;;;5417731;26;20231;-62
2024/04/23 07:02:35;;;;;;;13.50;10.10;;;7.30;99.90;;;;;;5416651;26;20772;-63
2024/04/23 07:05:01;;;;;;;13.33;10.20;;;7.40;99.90;;;;;;5418357;26;20437;-63
2024/04/23 07:07:26;;;;;;;13.43;10.43;;;7.40;99.90;;;;;;5418687;26;20313;-63
2024/04/23 07:09:52;;;;;;;12.60;10.33;;;7.50;99.90;;;;;;5415699;26;20452;-63
2024/04/23 07:12:18;;;;;;;9.43;8.43;;;7.60;99.90;;;;;;5418565;26;20679;-63
2024/04/23 07:14:43;;;;;;;12.00;8.30;;;7.70;99.90;;;;;;5417195;26;20227;-63
2024/04/23 07:17:09;;;;;;;8.30;7.50;;;7.80;99.90;;;;;;5417307;26;20577;-62
2024/04/23 07:19:35;;;;;;;9.73;7.63;;;7.80;99.10;;;;;;5416791;26;20312;-63
2024/04/23 07:22:01;;;;;;;10.03;7.20;;;8.00;97.80;;;;;;5418104;26;20227;-63
2024/04/23 07:24:26;;;;;;;10.00;9.10;;;8.10;97.40;;;;;;5418447;26;20265;-63
2024/04/23 07:26:53;;;;;;;11.03;8.93;;;8.10;96.70;;;;;;5417491;26;20275;-62
2024/04/23 07:29:19;;;;;;;11.63;10.43;;;8.20;96.80;;;;;;5418525;26;20328;-63
2024/04/23 07:31:44;;;;;;;14.17;11.10;;;8.40;98.20;;;;;;5417709;26;20440;-63
2024/04/23 07:34:10;;;;;;;12.77;10.90;;;8.50;99.90;;;;;;5418213;26;20703;-63
2024/04/23 07:36:36;;;;;;;12.90;9.33;;;8.70;99.90;;;;;;5418100;26;20220;-63
2024/04/23 07:39:02;;;;;;;11.90;10.60;;;8.70;99.90;;;;;;5416639;26;20310;-63
2024/04/23 07:41:27;;;;;;;14.00;10.33;;;8.80;99.60;;;;;;5416915;26;20717;-64
2024/04/23 07:43:53;;;;;;;10.07;8.97;;;8.90;99.00;;;;;;5417338;26;20278;-62
2024/04/23 07:46:19;;;;;;;11.97;9.13;;;9.00;97.50;;;;;;5418219;26;20228;-63
2024/04/23 07:48:45;;;;;;;10.00;9.00;;;9.10;95.20;;;;;;5417656;26;20541;-63
2024/04/23 07:51:10;;;;;;;10.13;9.20;;;9.20;93.80;;;;;;5415727;26;20236;-63
2024/04/23 07:53:36;;;;;;;9.57;8.57;;;9.30;94.70;;;;;;5417591;26;20247;-64
2024/04/23 07:56:02;;;;;;;6.87;6.20;;;9.40;95.10;;;;;;5416357;26;20233;-63
2024/04/23 07:58:28;;;;;;;6.40;5.40;;;9.40;92.00;;;;;;5416360;26;20263;-68
2024/04/23 08:00:55;;;;;;;8.43;7.50;;;9.50;91.30;;;;;;5415676;26;20560;-63
2024/04/23 08:03:20;;;;;;;7.20;6.10;;;9.60;91.00;;;;;;5416937;26;20233;-64
2024/04/23 08:05:46;;;;;;;5.60;5.13;;;9.70;91.40;;;;;;5416364;26;20831;-64
2024/04/23 08:08:12;;;;;;;6.50;5.17;;;9.90;90.20;;;;;;5417412;26;20280;-64
2024/04/23 08:10:38;;;;;;;7.80;7.20;;;10.00;82.70;;;;;;5417655;26;20228;-64
2024/04/23 08:13:04;;;;;;;8.33;5.20;;;10.10;79.50;;;;;;5416546;26;20226;-63
2024/04/23 08:15:29;;;;;;;5.47;5.00;;;10.20;81.80;;;;;;5417828;26;20218;-64
2024/04/23 08:17:55;;;;;;;4.40;4.10;;;10.40;82.70;;;;;;5421531;26;20472;-63
2024/04/23 08:20:22;;;;;;;7.00;6.50;;;10.50;80.00;;;;;;5453199;26;20260;-64
2024/04/23 08:22:48;;;;;;;5.00;4.70;;;10.70;81.30;;;;;;5452415;26;20229;-63
2024/04/23 08:25:17;;;;;;;7.13;6.50;;;10.70;72.30;;;;;;5453098;26;20487;-64
2024/04/23 08:27:47;;;;;;;4.43;4.13;;;10.80;72.30;;;;;;5453381;26;20218;-64
2024/04/23 08:30:13;;;;;;;4.73;4.27;;;10.90;72.70;;;;;;5453845;26;20428;-64
2024/04/23 08:32:40;;;;;;;4.40;4.10;;;11.00;72.20;;;;;;5453670;26;20922;-64
2024/04/23 08:35:06;;;;;;;4.13;3.93;;;11.20;71.00;;;;;;5452348;26;20244;-64
2024/04/23 08:37:32;;;;;;;4.60;4.20;;;11.40;71.30;;;;;;5453445;26;20509;-64
2024/04/23 08:39:57;;;;;;;5.40;4.90;;;11.50;66.80;;;;;;5452746;26;20427;-63
2024/04/23 08:42:24;;;;;;;5.30;4.90;;;11.70;65.40;;;;;;5453105;26;20279;-64
2024/04/23 08:44:51;;;;;;;5.43;5.03;;;11.80;65.40;;;;;;5452253;26;20549;-63
2024/04/23 08:47:18;;;;;;;5.70;5.20;;;12.00;65.80;;;;;;5453245;26;20887;-64
2024/04/23 08:49:45;;;;;;;5.10;4.80;;;12.10;66.90;;;;;;5453392;26;20764;-65
2024/04/23 08:52:12;;;;;;;4.50;4.20;;;12.20;61.20;;;;;;5453239;26;20835;-64
2024/04/23 08:54:39;;;;;;;3.87;3.67;;;12.10;58.00;;;;;;5452772;26;20447;-64
2024/04/23 08:57:07;;;;;;;4.37;4.07;;;12.20;62.30;;;;;;5452504;26;20438;-64
2024/04/23 08:59:33;;;;;;;4.30;3.90;;;12.40;63.10;;;;;;5452917;26;20493;-64
2024/04/23 09:02:03;;;;;;;4.77;4.47;;;12.50;57.80;;;;;;5452319;26;20775;-64
2024/04/23 09:04:29;;;;;;;4.60;4.40;;;12.50;55.40;;;;;;5452970;26;20430;-64
2024/04/23 09:06:55;;;;;;;5.13;4.73;;;12.50;57.10;;;;;;5452456;26;20501;-64
2024/04/23 09:09:21;;;;;;;4.70;4.30;;;12.60;56.90;;;;;;5453147;26;20577;-65
2024/04/23 09:11:51;;;;;;;5.70;5.40;;;12.70;55.80;;;;;;5452190;26;20494;-64
2024/04/23 09:14:17;;;;;;;4.43;4.13;;;12.80;58.90;;;;;;5452927;26;20431;-64
2024/04/23 09:16:43;;;;;;;5.40;5.10;;;13.00;64.00;;;;;;5453090;26;20941;-65
2024/04/23 09:19:09;;;;;;;4.90;4.40;;;13.10;57.30;;;;;;5452077;26;20474;-64
2024/04/23 09:21:35;;;;;;;6.37;5.80;;;13.10;55.90;;;;;;5452373;26;20982;-64
2024/04/23 09:24:02;;;;;;;5.77;5.27;;;13.30;58.40;;;;;;5451701;26;20564;-64
2024/04/23 09:26:28;;;;;;;4.03;3.80;;;13.40;56.60;;;;;;5451195;26;20442;-64
2024/04/23 09:28:56;;;;;;;6.87;6.47;;;13.60;56.90;;;;;;5451785;26;20771;-64
2024/04/23 09:31:22;;;;;;;5.03;4.63;;;13.70;54.50;;;;;;5452616;26;20510;-64
2024/04/23 09:33:55;;;;;;;4.57;4.27;;;13.70;53.30;;;;;;5452106;26;20955;-63
2024/04/23 09:36:26;;;;;;;4.30;4.00;;;13.70;56.00;;;;;;5452557;26;20835;-64
2024/04/23 09:38:53;;;;;;;4.60;4.30;;;13.90;58.20;;;;;;5451949;26;20433;-64
2024/04/23 09:41:20;;;;;;;4.03;3.80;;;14.10;57.40;;;;;;5420770;26;20515;-64
2024/04/23 09:43:57;;;;;;;4.47;4.17;;;14.30;55.30;;;;;;5420269;26;20500;-63
2024/04/23 09:46:25;;;;;;;3.70;3.50;;;14.60;56.00;;;;;;5452281;26;20468;-62
2024/04/23 09:48:52;;;;;;;3.70;3.40;;;14.90;54.30;;;;;;5451621;26;20448;-61
2024/04/23 09:51:19;;;;;;;4.33;4.03;;;15.10;53.70;;;;;;5452308;26;20423;-65
2024/04/23 09:53:47;;;;;;;5.00;4.60;;;15.20;52.70;;;;;;5452090;26;20550;-65
2024/04/23 09:56:17;;;;;;;5.17;4.87;;;15.40;51.70;;;;;;5451506;26;20439;-62
2024/04/23 09:58:43;;;;;;;3.90;3.70;;;15.50;50.80;;;;;;5452160;26;20435;-65
2024/04/23 10:01:10;;;;;;;4.70;4.50;;;15.30;49.30;;;;;;5451323;26;20814;-64
2024/04/23 10:03:41;;;;;;;4.47;4.07;;;15.40;54.00;;;;;;5451816;26;20285;-62
2024/04/23 10:06:08;;;;;;;6.63;5.97;;;15.50;51.60;;;;;;5451322;26;21029;-62
2024/04/23 10:08:44;;;;;;;4.77;4.37;;;15.60;54.10;;;;;;5451935;26;20447;-63
2024/04/23 10:11:11;;;;;;;5.30;4.90;;;15.70;49.80;;;;;;5450882;26;20497;-62
2024/04/23 10:13:52;;;;;;;4.93;4.73;;;15.70;51.80;;;;;;5451777;26;20420;-63
2024/04/23 10:16:25;;;;;;;4.57;4.37;;;15.80;51.40;;;;;;5451740;26;20513;-63
2024/04/23 10:18:59;;;;;;;4.37;4.17;;;15.90;51.90;;;;;;5413384;26;20517;-61
2024/04/23 10:21:29;;;;;;;4.43;4.23;;;16.10;52.90;;;;;;5416054;26;20804;-65
2024/04/23 10:24:04;;;;;;;4.80;4.40;;;16.10;52.80;;;;;;5415063;26;20433;-62
2024/04/23 10:26:31;;;;;;;4.57;4.30;;;16.20;52.50;;;;;;5416220;26;20480;-62
2024/04/23 10:28:57;;;;;;;4.60;4.30;;;16.20;52.30;;;;;;5413180;26;20445;-62
2024/04/23 10:31:24;;;;;;;4.90;4.50;;;16.10;53.60;;;;;;5415848;26;20441;-62
2024/04/23 10:33:53;;;;;;;5.13;4.63;;;15.90;54.00;;;;;;5414009;26;20444;-62
2024/04/23 10:36:20;;;;;;;6.80;6.40;;;15.60;51.50;;;;;;5416529;26;20425;-62
2024/04/23 10:38:49;;;;;;;5.10;4.80;;;15.40;54.70;;;;;;5419070;26;20497;-62
2024/04/23 10:41:17;;;;;;;4.63;4.33;;;15.20;53.00;;;;;;5418228;26;20543;-62
2024/04/23 10:43:43;;;;;;;4.67;4.37;;;15.10;53.40;;;;;;5419045;26;20478;-62
2024/04/23 10:46:10;;;;;;;6.37;5.57;;;15.00;53.30;;;;;;5417666;26;20479;-62
2024/04/23 10:48:37;;;;;;;4.77;4.47;;;14.90;54.00;;;;;;5418316;26;20516;-62
2024/04/23 10:51:06;;;;;;;5.00;4.70;;;14.80;53.50;;;;;;5417723;26;20811;-64
2024/04/23 10:53:33;;;;;;;4.93;4.60;;;14.70;54.70;;;;;;5419036;26;20500;-65
2024/04/23 10:55:59;;;;;;;4.63;4.43;;;14.50;51.80;;;;;;5418181;26;20434;-64
2024/04/23 10:58:25;;;;;;;5.20;4.80;;;14.40;52.50;;;;;;5418880;26;20613;-64
2024/04/23 11:01:01;;;;;;;5.30;5.00;;;14.30;51.40;;;;;;5418835;26;20439;-62
2024/04/23 11:03:34;;;;;;;5.07;4.77;;;14.60;56.30;;;;;;5418728;26;20428;-62
2024/04/23 11:06:00;;;;;;;5.40;5.10;;;14.90;53.90;;;;;;5417451;26;20456;-62
2024/04/23 11:08:27;;;;;;;5.30;4.87;;;15.10;51.60;;;;;;5417841;26;20550;-65
2024/04/23 11:11:04;;;;;;;5.17;4.80;;;15.50;53.00;;;;;;5418329;26;20223;-64
2024/04/23 11:13:41;;;;;;;5.47;5.17;;;15.80;54.50;;;;;;5418396;26;20480;-63
2024/04/23 11:16:18;;;;;;;6.03;5.67;;;16.00;51.80;;;;;;5417964;26;20481;-63
2024/04/23 11:18:51;;;;;;;6.73;6.30;;;16.00;51.50;;;;;;5435631;26;21069;-65
2024/04/23 11:21:27;;;;;;;5.00;4.70;;;15.80;51.50;;;;;;5453795;26;20832;-64
2024/04/23 11:23:54;;;;;;;5.47;4.97;;;15.60;53.80;;;;;;5454388;26;20491;-65
2024/04/23 11:26:23;;;;;;;5.13;4.73;;;15.40;54.30;;;;;;5454401;26;20484;-65
2024/04/23 11:28:49;;;;;;;5.00;4.70;;;15.30;53.70;;;;;;5422772;26;20774;-65
2024/04/23 11:31:15;;;;;;;5.43;5.03;;;15.20;52.60;;;;;;5453552;26;20432;-62
2024/04/23 11:33:42;;;;;;;5.70;5.30;;;15.10;53.40;;;;;;5453865;26;20479;-62
2024/04/23 11:36:08;;;;;;;7.33;6.80;;;15.00;51.90;;;;;;5453109;26;20447;-62
2024/04/23 11:38:40;;;;;;;5.87;4.60;;;15.10;52.70;;;;;;5453990;26;20843;-63
2024/04/23 11:41:11;;;;;;;6.37;5.93;;;15.30;52.70;;;;;;5453478;26;20443;-62
2024/04/23 11:43:38;;;;;;;4.00;3.73;;;15.60;53.60;;;;;;5453915;26;20599;-62
2024/04/23 11:46:06;;;;;;;5.73;5.33;;;15.90;54.70;;;;;;5452325;26;20478;-63
2024/04/23 11:48:33;;;;;;;4.20;3.90;;;16.00;53.90;;;;;;5453025;26;20494;-63
2024/04/23 11:51:00;;;;;;;4.20;3.90;;;16.30;51.60;;;;;;5453099;26;20503;-62
2024/04/23 11:53:26;;;;;;;4.60;4.40;;;16.50;54.30;;;;;;5454086;26;20522;-63
2024/04/23 11:55:51;;;;;;;7.17;6.73;;;16.60;51.80;;;;;;5422305;26;20439;-63
2024/04/23 11:58:18;;;;;;;5.33;4.73;;;16.50;50.40;;;;;;5453072;26;20439;-62
2024/04/23 12:00:44;;;;;;;4.40;4.10;;;16.50;51.00;;;;;;5453794;26;20233;-63
2024/04/23 12:03:10;;;;;;;4.93;4.53;;;16.40;50.00;;;;;;5452941;26;20424;-62
2024/04/23 12:05:37;;;;;;;5.17;4.80;;;16.40;50.50;;;;;;5453879;26;20439;-62
2024/04/23 12:08:04;;;;;;;5.13;4.73;;;16.20;50.20;;;;;;5453241;26;20258;-62
2024/04/23 12:10:30;;;;;;;6.87;6.47;;;16.10;50.50;;;;;;5454102;26;20439;-63
2024/04/23 12:12:56;;;;;;;5.17;4.87;;;16.10;49.70;;;;;;5422221;26;20452;-63
2024/04/23 12:15:23;;;;;;;6.13;5.73;;;16.20;50.60;;;;;;5422582;26;20951;-62
2024/04/23 12:17:50;;;;;;;5.03;4.63;;;16.20;49.60;;;;;;5453437;26;20519;-62
2024/04/23 12:20:15;;;;;;;6.93;6.53;;;16.30;50.60;;;;;;5453317;26;20455;-62
2024/04/23 12:22:44;;;;;;;6.03;5.63;;;16.40;46.20;;;;;;5453031;26;20443;-62
2024/04/23 12:25:20;;;;;;;5.30;5.00;;;16.00;44.70;;;;;;5452420;26;20448;-62
2024/04/23 12:27:47;;;;;;;5.20;4.90;;;15.80;45.70;;;;;;5453528;26;20809;-62
2024/04/23 12:30:14;;;;;;;5.60;5.27;;;15.70;48.80;;;;;;5452872;26;20439;-62
2024/04/23 12:32:41;;;;;;;4.87;4.60;;;15.60;51.80;;;;;;5453677;26;20518;-63
2024/04/23 12:35:08;;;;;;;5.90;5.50;;;15.60;51.00;;;;;;5452746;26;20498;-62
2024/04/23 12:37:34;;;;;;;5.87;5.47;;;15.40;50.40;;;;;;5453589;26;20427;-63
2024/04/23 12:40:09;;;;;;;5.63;5.20;;;15.30;49.80;;;;;;5452727;26;20847;-61
2024/04/23 12:42:38;;;;;;;5.80;5.40;;;15.30;50.30;;;;;;5453434;26;20864;-62
2024/04/23 12:45:04;;;;;;;6.00;5.60;;;15.20;49.70;;;;;;5452215;26;20855;-62
2024/04/23 12:47:29;;;;;;;5.90;5.50;;;15.10;51.60;;;;;;5453244;26;20496;-62
2024/04/23 12:49:55;;;;;;;6.07;5.77;;;15.00;52.00;;;;;;5453159;26;20797;-62
2024/04/23 12:52:21;;;;;;;5.47;5.17;;;14.90;51.10;;;;;;5420756;26;20229;-63
2024/04/23 12:54:48;;;;;;;5.33;4.60;;;14.80;49.80;;;;;;5453237;26;20228;-62
2024/04/23 12:57:14;;;;;;;5.17;4.77;;;14.80;52.70;;;;;;5452449;26;20225;-63